Time;durP1;ratioP1;P1;durP2;ratioP2;P2;SDS_P1;SDS_P2;PMS_P1;PMS_P2;Temp;Humidity;BMP_temperature;BMP_pressure;BME280_temperature;BME280_humidity;BME280_pressure;Samples;Min_cycle;Max_cycle;Signal;HPM_P1;HPM_P2
2023/07/23 00:01:46;;;;;;;1.10;1.10;;;;;;;25.47;81.96;96813.00;5043357;28;20044;-69
2023/07/23 00:04:13;;;;;;;1.02;1.02;;;;;;;25.26;79.78;96797.69;5043779;28;20055;-68
2023/07/23 00:06:40;;;;;;;1.10;1.10;;;;;;;25.11;79.11;96742.88;5041596;28;20597;-68
2023/07/23 00:09:07;;;;;;;1.20;1.20;;;;;;;25.21;79.95;96789.81;5043716;28;20136;-68
2023/07/23 00:11:34;;;;;;;1.20;1.20;;;;;;;25.23;79.97;96770.28;5041840;28;20049;-67
2023/07/23 00:14:01;;;;;;;1.20;1.20;;;;;;;24.84;79.81;96693.91;5043722;28;20535;-69
2023/07/23 00:16:27;;;;;;;1.10;1.10;;;;;;;25.66;79.52;96802.41;5041896;28;20041;-68
2023/07/23 00:18:54;;;;;;;1.00;1.00;;;;;;;25.62;78.88;96796.09;5043549;28;20569;-68
2023/07/23 00:21:21;;;;;;;1.17;1.17;;;;;;;25.22;78.72;96750.91;5043077;28;20492;-69
2023/07/23 00:23:47;;;;;;;1.30;1.30;;;;;;;25.84;78.55;96839.28;5042133;28;20443;-67
2023/07/23 00:26:14;;;;;;;1.20;1.20;;;;;;;25.84;79.01;96848.59;5043532;28;20056;-69
2023/07/23 00:28:41;;;;;;;1.08;1.08;;;;;;;25.73;79.54;96831.25;5043090;28;20045;-68
2023/07/23 00:31:07;;;;;;;1.33;1.33;;;;;;;25.30;79.79;96786.19;5043402;28;20578;-68
2023/07/23 00:33:34;;;;;;;1.38;1.38;;;;;;;25.35;79.12;96764.94;5042214;28;20076;-68
2023/07/23 00:36:01;;;;;;;1.10;1.10;;;;;;;25.73;79.74;96836.94;5042207;28;20068;-68
2023/07/23 00:38:27;;;;;;;1.20;1.20;;;;;;;25.25;79.31;96756.44;5043203;28;20446;-69
2023/07/23 00:40:56;;;;;;;1.30;1.30;;;;;;;25.74;78.27;96818.63;5036801;28;20044;-68
2023/07/23 00:43:23;;;;;;;1.23;1.23;;;;;;;25.58;78.57;96803.97;5041006;28;20059;-69
2023/07/23 00:45:50;;;;;;;1.30;1.30;;;;;;;24.33;79.22;96605.16;5043206;28;20071;-70
2023/07/23 00:48:17;;;;;;;1.10;1.10;;;;;;;25.25;79.97;96778.31;5034023;28;20100;-69
2023/07/23 00:50:43;;;;;;;1.40;1.40;;;;;;;25.40;80.11;96815.38;5023355;28;20064;-68
2023/07/23 00:53:10;;;;;;;1.20;1.20;;;;;;;25.29;80.25;96813.75;5022572;28;20063;-68
2023/07/23 00:55:37;;;;;;;1.30;1.30;;;;;;;25.59;80.76;96848.13;5023097;28;20046;-69
2023/07/23 00:58:04;;;;;;;1.20;1.20;;;;;;;25.06;80.89;96776.75;5023264;28;20054;-69
2023/07/23 01:00:30;;;;;;;1.13;1.13;;;;;;;25.04;81.39;96765.88;5032542;28;20044;-69
2023/07/23 01:02:58;;;;;;;1.00;1.00;;;;;;;25.19;81.69;96797.22;5042826;28;20126;-69
2023/07/23 01:05:26;;;;;;;1.10;1.10;;;;;;;25.31;81.51;96833.94;5042987;28;20053;-68
2023/07/23 01:07:56;;;;;;;1.10;1.10;;;;;;;25.07;81.80;96796.09;5043412;28;20444;-68
2023/07/23 01:10:23;;;;;;;1.20;1.20;;;;;;;25.42;81.47;96832.72;5043342;28;20045;-69
2023/07/23 01:12:51;;;;;;;1.10;1.10;;;;;;;25.42;80.95;96841.97;5046542;28;20063;-69
2023/07/23 01:15:18;;;;;;;1.10;1.10;;;;;;;24.90;80.60;96755.16;5046782;28;20083;-68
2023/07/23 01:17:46;;;;;;;1.00;1.00;;;;;;;25.37;80.30;96824.81;5045465;28;20059;-68
2023/07/23 01:20:13;;;;;;;1.13;1.13;;;;;;;25.55;80.47;96831.25;5046764;28;20130;-68
2023/07/23 01:22:40;;;;;;;1.30;1.30;;;;;;;25.30;80.88;96826.69;5046766;28;20163;-69
2023/07/23 01:25:07;;;;;;;1.10;1.10;;;;;;;25.43;80.70;96846.41;5046695;28;20049;-69
2023/07/23 01:27:34;;;;;;;1.27;1.27;;;;;;;25.02;80.69;96793.91;5046467;28;20597;-68
2023/07/23 01:30:00;;;;;;;1.17;1.17;;;;;;;25.39;81.92;96862.03;5046558;28;20060;-68
2023/07/23 01:32:27;;;;;;;1.30;1.30;;;;;;;24.86;85.79;96893.41;5045080;28;20063;-68
2023/07/23 01:34:57;;;;;;;1.00;1.00;;;;;;;24.87;88.23;96945.19;5046437;28;20554;-68
2023/07/23 01:37:24;;;;;;;1.00;1.00;;;;;;;24.26;87.60;96883.69;5045521;28;20553;-69
2023/07/23 01:39:51;;;;;;;1.10;1.10;;;;;;;24.32;87.32;96887.50;5044596;28;20048;-69
2023/07/23 01:42:18;;;;;;;1.10;1.10;;;;;;;24.21;90.42;96898.47;5045913;28;20086;-69
2023/07/23 01:44:44;;;;;;;1.00;1.00;;;;;;;24.31;91.40;96911.38;5044227;28;20127;-69
2023/07/23 01:47:11;;;;;;;1.00;1.00;;;;;;;24.30;91.25;96892.03;5045075;28;20068;-68
2023/07/23 01:49:38;;;;;;;1.02;1.02;;;;;;;24.33;91.36;96874.91;5045781;28;20048;-68
2023/07/23 01:52:05;;;;;;;1.20;1.20;;;;;;;24.39;91.62;96887.19;5044078;28;20195;-68
2023/07/23 01:54:32;;;;;;;1.00;1.00;;;;;;;24.21;91.68;96836.19;5024397;28;20053;-69
2023/07/23 01:56:58;;;;;;;1.10;1.10;;;;;;;24.54;92.39;96876.91;5024562;28;20048;-67
2023/07/23 01:59:25;;;;;;;1.20;1.20;;;;;;;24.60;91.81;96877.06;5025933;28;20056;-68
2023/07/23 02:01:52;;;;;;;1.20;1.20;;;;;;;24.37;92.07;96844.44;5026397;28;20057;-68
2023/07/23 02:04:18;;;;;;;1.02;1.02;;;;;;;24.42;92.00;96866.44;5025673;28;20053;-69
2023/07/23 02:06:45;;;;;;;1.15;1.15;;;;;;;24.43;91.18;96876.53;5026307;28;20064;-69
2023/07/23 02:09:12;;;;;;;1.15;1.15;;;;;;;24.17;91.00;96834.75;5025830;28;20065;-69
2023/07/23 02:11:38;;;;;;;1.10;1.10;;;;;;;24.02;91.77;96820.34;5024336;28;20057;-69
2023/07/23 02:14:05;;;;;;;1.10;1.10;;;;;;;24.44;91.89;96880.94;5042765;28;20059;-69
2023/07/23 02:16:32;;;;;;;1.10;1.10;;;;;;;24.41;91.42;96872.56;5043883;28;20049;-69
2023/07/23 02:18:59;;;;;;;1.10;1.10;;;;;;;24.06;91.28;96818.16;5045183;28;20048;-66
2023/07/23 02:21:26;;;;;;;1.00;1.00;;;;;;;24.26;92.02;96866.72;5044967;28;20053;-68
2023/07/23 02:23:53;;;;;;;1.27;1.27;;;;;;;24.18;92.30;96871.06;5042954;28;20052;-67
2023/07/23 02:26:20;;;;;;;1.10;1.10;;;;;;;24.25;91.09;96899.09;5043874;28;20057;-68
2023/07/23 02:28:47;;;;;;;1.10;1.10;;;;;;;24.00;91.40;96865.31;5045390;28;20139;-68
2023/07/23 02:31:14;;;;;;;1.00;1.00;;;;;;;23.74;92.77;96841.25;5045073;28;20524;-67
2023/07/23 02:33:40;;;;;;;1.00;1.00;;;;;;;23.72;93.91;96826.75;5045170;28;20045;-68
2023/07/23 02:36:08;;;;;;;1.10;1.10;;;;;;;24.14;93.63;96887.41;5043867;28;20051;-68
2023/07/23 02:38:35;;;;;;;1.10;1.10;;;;;;;23.18;98.16;96882.84;5044750;28;20088;-68
2023/07/23 02:41:02;;;;;;;1.10;1.10;;;;;;;23.39;98.91;96904.75;5045073;28;20045;-67
2023/07/23 02:43:28;;;;;;;1.00;1.00;;;;;;;23.51;97.30;96889.75;5044768;28;20473;-67
2023/07/23 02:45:55;;;;;;;1.00;1.00;;;;;;;23.17;98.79;96909.53;5045043;28;20056;-67
2023/07/23 02:48:22;;;;;;;1.00;1.00;;;;;;;22.93;100.00;96940.22;5044011;28;20049;-68
2023/07/23 02:50:50;;;;;;;1.00;1.00;;;;;;;23.18;100.00;96945.03;5044792;28;20484;-68
2023/07/23 02:53:17;;;;;;;1.00;1.00;;;;;;;22.98;100.00;96913.44;5044773;28;20052;-67
2023/07/23 02:55:45;;;;;;;1.00;1.00;;;;;;;22.93;100.00;96885.75;5044716;28;20060;-67
2023/07/23 02:58:11;;;;;;;0.90;0.90;;;;;;;23.08;100.00;96906.63;5045097;28;20056;-68
2023/07/23 03:00:41;;;;;;;0.90;0.90;;;;;;;23.26;100.00;96935.91;5043765;28;20045;-67
2023/07/23 03:03:07;;;;;;;1.00;1.00;;;;;;;23.35;100.00;96943.66;5045030;28;20049;-67
2023/07/23 03:05:35;;;;;;;0.90;0.90;;;;;;;23.46;100.00;96936.38;5044333;28;20048;-68
2023/07/23 03:08:03;;;;;;;1.10;1.10;;;;;;;23.45;99.37;96942.50;5044614;28;20528;-68
2023/07/23 03:10:30;;;;;;;1.05;1.05;;;;;;;23.35;100.00;96938.00;5044171;28;20601;-67
2023/07/23 03:12:56;;;;;;;1.00;1.00;;;;;;;23.56;98.78;96948.56;5044265;28;20048;-67
2023/07/23 03:15:23;;;;;;;0.90;0.90;;;;;;;23.31;99.12;96914.72;5042882;28;20052;-67
2023/07/23 03:17:51;;;;;;;1.00;1.00;;;;;;;23.07;100.00;96905.03;5044551;28;20067;-67
2023/07/23 03:20:18;;;;;;;0.98;0.98;;;;;;;23.37;100.00;96964.59;5043957;28;20099;-68
2023/07/23 03:22:45;;;;;;;0.95;0.95;;;;;;;23.23;100.00;96965.03;5042757;28;20045;-68
2023/07/23 03:25:11;;;;;;;1.00;1.00;;;;;;;23.06;100.00;96966.41;5044388;28;20072;-67
2023/07/23 03:27:38;;;;;;;1.00;1.00;;;;;;;22.91;100.00;96964.50;5044448;28;20500;-67
2023/07/23 03:30:06;;;;;;;1.00;1.00;;;;;;;22.86;100.00;96939.69;5044322;28;20041;-67
2023/07/23 03:32:32;;;;;;;0.90;0.90;;;;;;;22.93;100.00;96936.59;5043231;28;20059;-67
2023/07/23 03:34:59;;;;;;;0.93;0.93;;;;;;;22.69;100.00;96912.78;5042380;28;20056;-67
2023/07/23 03:37:26;;;;;;;1.00;1.00;;;;;;;22.81;100.00;96897.88;5026367;28;20154;-68
2023/07/23 03:39:52;;;;;;;0.98;0.98;;;;;;;22.95;100.00;96937.72;5022854;28;20046;-68
2023/07/23 03:42:20;;;;;;;1.00;1.00;;;;;;;22.89;100.00;96887.91;5038933;28;20523;-67
2023/07/23 03:44:46;;;;;;;1.02;1.02;;;;;;;23.34;100.00;96947.75;5024108;28;20057;-67
2023/07/23 03:47:18;;;;;;;1.00;1.00;;;;;;;23.26;100.00;96935.09;5024145;28;20734;-67
2023/07/23 03:49:46;;;;;;;1.00;1.00;;;;;;;23.63;99.57;96963.25;5022640;28;20045;-68
2023/07/23 03:52:13;;;;;;;0.93;0.93;;;;;;;23.81;98.62;96971.09;5024177;28;20065;-67
2023/07/23 03:54:40;;;;;;;1.08;1.08;;;;;;;23.90;97.06;96957.00;5023534;28;20057;-67
2023/07/23 03:57:07;;;;;;;1.00;1.00;;;;;;;23.65;94.56;96895.69;5024065;28;20575;-68
2023/07/23 03:59:36;;;;;;;1.00;1.00;;;;;;;24.14;93.22;96944.00;5024276;28;20157;-67
2023/07/23 04:02:03;;;;;;;1.10;1.10;;;;;;;24.37;92.83;96946.38;5023919;28;20480;-68
2023/07/23 04:04:31;;;;;;;1.10;1.10;;;;;;;24.55;92.36;96957.78;5038717;28;20096;-67
2023/07/23 04:06:57;;;;;;;1.00;1.00;;;;;;;24.75;91.24;96978.06;5031535;28;20079;-67
2023/07/23 04:09:24;;;;;;;1.00;1.00;;;;;;;24.32;90.28;96870.50;5050117;28;20045;-68
2023/07/23 04:11:51;;;;;;;1.00;1.00;;;;;;;24.91;89.89;96963.63;5043525;28;20052;-68
2023/07/23 04:14:17;;;;;;;1.02;1.02;;;;;;;24.98;89.31;96957.69;5062079;28;20048;-67
2023/07/23 04:16:44;;;;;;;1.10;1.10;;;;;;;24.95;90.68;96952.94;5061879;28;20052;-68
2023/07/23 04:19:11;;;;;;;1.05;1.05;;;;;;;24.76;89.47;96911.63;5063551;28;20056;-67
2023/07/23 04:21:40;;;;;;;1.20;1.20;;;;;;;25.05;89.55;96968.72;5063603;28;20130;-67
2023/07/23 04:24:06;;;;;;;1.20;1.20;;;;;;;24.76;90.53;96937.13;5063391;28;20440;-67
2023/07/23 04:26:33;;;;;;;1.20;1.20;;;;;;;24.63;91.91;96936.41;5063573;28;20064;-67
2023/07/23 04:29:00;;;;;;;1.10;1.10;;;;;;;24.78;91.76;96948.81;5063744;28;20135;-67
2023/07/23 04:31:27;;;;;;;1.20;1.20;;;;;;;24.46;90.96;96892.59;5063470;28;20498;-67
2023/07/23 04:33:54;;;;;;;1.13;1.13;;;;;;;25.01;90.25;96973.75;5063630;28;20052;-67
2023/07/23 04:36:21;;;;;;;1.20;1.20;;;;;;;24.67;90.30;96930.66;5062908;28;20074;-68
2023/07/23 04:38:48;;;;;;;1.10;1.10;;;;;;;24.71;89.53;96931.28;5063213;28;20479;-68
2023/07/23 04:41:15;;;;;;;1.20;1.20;;;;;;;24.99;88.73;96962.09;5063140;28;20052;-68
2023/07/23 04:43:42;;;;;;;1.27;1.27;;;;;;;24.98;88.11;96968.22;5062042;28;20053;-68
2023/07/23 04:46:09;;;;;;;1.10;1.10;;;;;;;24.53;88.12;96895.13;5064336;28;20079;-67
2023/07/23 04:48:37;;;;;;;1.10;1.10;;;;;;;24.88;88.33;96975.91;5066514;28;20053;-67
2023/07/23 04:51:07;;;;;;;1.30;1.30;;;;;;;24.91;87.68;96962.84;5065406;28;20578;-66
2023/07/23 04:53:34;;;;;;;1.15;1.15;;;;;;;25.05;86.57;96951.72;5064904;28;20064;-67
2023/07/23 04:56:03;;;;;;;0.95;0.95;;;;;;;25.10;85.54;96942.59;5065396;28;20048;-67
2023/07/23 04:58:31;;;;;;;1.20;1.20;;;;;;;25.43;84.56;96981.78;5067394;28;20052;-67
2023/07/23 05:01:04;;;;;;;1.30;1.30;;;;;;;25.37;83.33;96949.63;5066586;28;20139;-68
2023/07/23 05:03:31;;;;;;;1.27;1.27;;;;;;;24.82;81.97;96904.09;5067671;28;20131;-67
2023/07/23 05:06:02;;;;;;;1.05;1.05;;;;;;;25.64;81.92;96938.31;5066628;28;20056;-69
2023/07/23 05:08:30;;;;;;;1.13;1.13;;;;;;;26.08;81.95;96976.50;5066719;28;20048;-67
2023/07/23 05:11:01;;;;;;;1.30;1.30;;;;;;;25.53;82.07;96856.47;5066708;28;20044;-67
2023/07/23 05:13:28;;;;;;;1.30;1.30;;;;;;;26.50;82.65;96968.84;5057668;28;20128;-67
2023/07/23 05:15:58;;;;;;;1.40;1.40;;;;;;;26.21;77.22;96900.41;5045066;28;20053;-67
2023/07/23 05:18:25;;;;;;;1.48;1.48;;;;;;;26.91;73.79;96976.63;5046751;28;20071;-67
2023/07/23 05:20:52;;;;;;;1.50;1.50;;;;;;;27.07;71.08;96966.91;5045424;28;20068;-67
2023/07/23 05:23:19;;;;;;;1.40;1.40;;;;;;;27.11;70.25;96968.31;5045151;28;20431;-66
2023/07/23 05:25:46;;;;;;;1.25;1.25;;;;;;;27.00;69.54;96931.06;5046311;28;20466;-66
2023/07/23 05:28:13;;;;;;;1.50;1.50;;;;;;;27.38;69.50;96971.03;5046753;28;20056;-67
2023/07/23 05:30:40;;;;;;;1.25;1.25;;;;;;;27.47;68.74;96939.69;5046486;28;20064;-66
2023/07/23 05:33:07;;;;;;;1.48;1.48;;;;;;;27.84;68.32;96966.59;5046574;28;20132;-66
2023/07/23 05:35:35;;;;;;;1.73;1.73;;;;;;;27.69;67.17;96945.88;5046104;28;20442;-67
2023/07/23 05:38:01;;;;;;;1.52;1.52;;;;;;;27.62;66.63;96923.44;5046502;28;20455;-66
2023/07/23 05:40:30;;;;;;;1.60;1.60;;;;;;;27.95;65.91;96966.88;5045911;28;20455;-68
2023/07/23 05:42:59;;;;;;;1.63;1.63;;;;;;;28.14;65.15;96973.97;5044759;28;20512;-67
2023/07/23 05:45:25;;;;;;;1.50;1.50;;;;;;;28.17;66.19;96960.03;5046023;28;20049;-66
2023/07/23 05:47:52;;;;;;;1.50;1.50;;;;;;;28.32;64.83;96958.78;5045663;28;20060;-65
2023/07/23 05:50:19;;;;;;;1.75;1.75;;;;;;;28.25;64.31;96935.59;5046033;28;20045;-65
2023/07/23 05:52:45;;;;;;;1.80;1.80;;;;;;;28.40;65.10;96970.56;5045775;28;20231;-67
2023/07/23 05:55:12;;;;;;;1.75;1.75;;;;;;;28.35;65.92;96951.28;5045513;28;20139;-67
2023/07/23 05:57:39;;;;;;;1.52;1.52;;;;;;;28.52;66.90;96967.47;5046031;28;20083;-66
2023/07/23 06:00:07;;;;;;;1.50;1.50;;;;;;;28.18;67.79;96922.50;5045742;28;20057;-68
2023/07/23 06:02:34;;;;;;;1.70;1.70;;;;;;;28.03;68.19;96908.25;5044226;28;20587;-67
2023/07/23 06:05:01;;;;;;;1.77;1.77;;;;;;;28.46;67.99;96940.09;5062213;28;20068;-66
2023/07/23 06:07:30;;;;;;;1.70;1.70;;;;;;;28.68;67.04;96981.22;5064739;28;20048;-67
2023/07/23 06:09:57;;;;;;;1.70;1.70;;;;;;;28.43;65.86;96913.38;5065744;28;20049;-67
2023/07/23 06:12:23;;;;;;;1.50;1.50;;;;;;;28.59;63.70;96923.53;5065500;28;20048;-67
2023/07/23 06:14:50;;;;;;;1.55;1.55;;;;;;;28.70;63.37;96944.47;5064135;28;20420;-68
2023/07/23 06:17:17;;;;;;;1.58;1.58;;;;;;;28.73;62.95;96936.97;5065520;28;20052;-67
2023/07/23 06:19:44;;;;;;;1.77;1.77;;;;;;;28.97;60.99;96951.88;5065829;28;20075;-68
2023/07/23 06:22:11;;;;;;;1.70;1.70;;;;;;;29.08;60.78;96930.06;5063555;28;20045;-66
2023/07/23 06:24:38;;;;;;;1.80;1.80;;;;;;;29.43;57.54;96945.09;5065368;28;20048;-67
2023/07/23 06:27:05;;;;;;;1.67;1.67;;;;;;;29.57;54.73;96932.03;5063407;28;20071;-67
2023/07/23 06:29:32;;;;;;;1.67;1.67;;;;;;;29.62;54.47;96899.94;5065669;28;20048;-66
2023/07/23 06:31:59;;;;;;;1.90;1.90;;;;;;;29.93;53.53;96920.06;5065359;28;20067;-67
2023/07/23 06:34:25;;;;;;;1.80;1.80;;;;;;;28.95;54.04;96743.38;5063903;28;20048;-67
2023/07/23 06:36:52;;;;;;;1.70;1.70;;;;;;;30.00;54.30;96896.78;5065071;28;20064;-68
2023/07/23 06:39:20;;;;;;;1.83;1.83;;;;;;;30.41;50.56;96903.19;5063436;28;20056;-68
2023/07/23 06:41:47;;;;;;;1.90;1.90;;;;;;;30.93;49.65;96936.97;5063119;28;20052;-67
2023/07/23 06:44:14;;;;;;;1.90;1.90;;;;;;;30.75;50.35;96907.91;5064469;28;20053;-67
2023/07/23 06:46:41;;;;;;;2.00;2.00;;;;;;;31.15;48.84;96947.78;5063866;28;20072;-68
2023/07/23 06:49:08;;;;;;;1.80;1.80;;;;;;;30.90;46.05;96923.66;5063568;28;20088;-66
2023/07/23 06:51:35;;;;;;;1.90;1.90;;;;;;;31.09;46.49;96946.19;5063546;28;20046;-66
2023/07/23 06:54:02;;;;;;;1.95;1.95;;;;;;;30.75;46.60;96951.59;5061605;28;20151;-67
2023/07/23 06:56:28;;;;;;;1.95;1.95;;;;;;;30.74;46.06;96921.44;5061589;28;20049;-66
2023/07/23 06:58:55;;;;;;;1.70;1.70;;;;;;;30.65;46.47;96901.56;5062586;28;20066;-67
2023/07/23 07:01:22;;;;;;;1.80;1.80;;;;;;;30.86;45.81;96922.31;5063547;28;20139;-67
2023/07/23 07:03:49;;;;;;;1.70;1.70;;;;;;;31.34;45.63;96953.91;5064575;28;20063;-67
2023/07/23 07:06:16;;;;;;;1.80;1.80;;;;;;;31.61;43.79;96953.31;5064165;28;20060;-67
2023/07/23 07:08:44;;;;;;;1.58;1.58;;;;;;;31.01;41.76;96884.97;5063857;28;20497;-67
2023/07/23 07:11:10;;;;;;;1.80;1.80;;;;;;;30.45;41.45;96773.00;5064346;28;20049;-67
2023/07/23 07:13:39;;;;;;;1.80;1.80;;;;;;;31.65;42.12;96939.50;5054839;28;20061;-67
2023/07/23 07:16:06;;;;;;;1.85;1.85;;;;;;;31.75;41.81;96958.84;5044098;28;20411;-66
2023/07/23 07:18:32;;;;;;;1.80;1.80;;;;;;;31.62;41.86;96946.28;5042556;28;20049;-67
2023/07/23 07:21:00;;;;;;;1.73;1.73;;;;;;;31.64;42.50;96961.66;5042600;28;20130;-68
2023/07/23 07:23:28;;;;;;;1.75;1.75;;;;;;;31.66;41.49;96967.66;5043832;28;20573;-68
2023/07/23 07:25:56;;;;;;;1.90;1.90;;;;;;;31.49;41.03;96928.78;5043789;28;20064;-67
2023/07/23 07:28:24;;;;;;;2.03;2.03;;;;;;;31.84;39.96;96955.00;5043732;28;20049;-68
2023/07/23 07:30:55;;;;;;;1.90;1.90;;;;;;;31.75;40.61;96953.13;5044212;28;20045;-66
2023/07/23 07:33:22;;;;;;;1.77;1.77;;;;;;;31.68;40.40;96941.38;5044258;28;20061;-67
2023/07/23 07:35:49;;;;;;;1.92;1.92;;;;;;;31.86;39.88;96949.53;5044008;28;20056;-67
2023/07/23 07:38:16;;;;;;;1.83;1.83;;;;;;;32.03;39.93;96938.94;5043866;28;20289;-67
2023/07/23 07:40:43;;;;;;;1.75;1.75;;;;;;;32.17;39.41;96955.13;5043839;28;20053;-67
2023/07/23 07:43:09;;;;;;;1.85;1.85;;;;;;;32.32;38.76;96921.28;5043228;28;20537;-67
2023/07/23 07:45:36;;;;;;;1.65;1.65;;;;;;;32.20;37.01;96913.97;5043644;28;20486;-68
2023/07/23 07:48:03;;;;;;;2.00;2.00;;;;;;;32.47;36.44;96996.44;5044029;28;20048;-67
2023/07/23 07:50:30;;;;;;;1.95;1.95;;;;;;;32.63;36.98;96952.66;5042252;28;20049;-67
2023/07/23 07:52:56;;;;;;;2.00;2.00;;;;;;;32.48;35.30;96946.38;5043711;28;20053;-68
2023/07/23 07:55:23;;;;;;;1.80;1.80;;;;;;;32.72;35.81;96952.44;5042083;28;20045;-67
2023/07/23 07:57:50;;;;;;;2.00;2.00;;;;;;;32.59;34.80;96934.94;5041838;28;20049;-68
2023/07/23 08:00:17;;;;;;;1.80;1.80;;;;;;;32.67;33.98;96950.34;5041465;28;20061;-68
2023/07/23 08:02:44;;;;;;;2.10;2.10;;;;;;;32.58;34.79;96927.59;5042135;28;20430;-67
2023/07/23 08:05:12;;;;;;;2.15;2.15;;;;;;;32.80;33.99;96938.34;5041375;28;20598;-66
2023/07/23 08:07:39;;;;;;;2.10;2.10;;;;;;;32.96;33.82;96946.97;5039647;28;20060;-68
2023/07/23 08:10:07;;;;;;;2.08;2.08;;;;;;;32.80;32.29;96921.13;5042249;28;20044;-67
2023/07/23 08:12:34;;;;;;;1.92;1.92;;;;;;;33.20;32.00;96943.56;5043689;28;20055;-67
2023/07/23 08:15:02;;;;;;;2.05;2.05;;;;;;;33.29;32.80;96946.94;5043716;28;20059;-67
2023/07/23 08:17:29;;;;;;;1.95;1.95;;;;;;;33.02;31.76;96944.88;5044166;28;20060;-68
2023/07/23 08:19:56;;;;;;;1.88;1.88;;;;;;;32.93;29.62;96948.00;5044781;28;20051;-67
2023/07/23 08:22:23;;;;;;;2.15;2.15;;;;;;;33.17;29.51;96944.59;5047791;28;20048;-67
2023/07/23 08:24:50;;;;;;;2.00;2.00;;;;;;;33.32;30.62;96940.16;5047060;28;20420;-68
2023/07/23 08:27:21;;;;;;;2.22;2.22;;;;;;;32.83;31.12;96909.38;5046627;28;20084;-67
2023/07/23 08:29:48;;;;;;;1.98;1.98;;;;;;;32.89;31.38;96913.06;5047486;28;20055;-67
2023/07/23 08:32:19;;;;;;;2.00;2.00;;;;;;;33.19;31.36;96936.25;5046949;28;20095;-68
2023/07/23 08:34:46;;;;;;;2.22;2.22;;;;;;;33.35;31.79;96947.75;5047139;28;20056;-67
2023/07/23 08:37:13;;;;;;;1.90;1.90;;;;;;;33.36;31.96;96951.38;5047805;28;20053;-67
2023/07/23 08:39:40;;;;;;;2.10;2.10;;;;;;;32.80;31.42;96910.41;5047086;28;20059;-67
2023/07/23 08:42:10;;;;;;;2.10;2.10;;;;;;;33.13;31.93;96942.03;5045394;28;20110;-67
2023/07/23 08:45:05;;;;;;;1.73;1.73;;;;;;;32.99;31.36;96951.66;5047042;28;20048;-67
2023/07/23 08:47:37;;;;;;;1.98;1.98;;;;;;;33.06;32.11;96939.66;5047007;28;20431;-66
2023/07/23 08:50:05;;;;;;;1.65;1.65;;;;;;;32.85;31.24;96941.19;5047066;28;20051;-67
2023/07/23 08:52:32;;;;;;;2.30;2.30;;;;;;;32.93;32.01;96953.75;5047497;28;20053;-67
2023/07/23 08:55:00;;;;;;;1.98;1.98;;;;;;;32.96;32.23;96940.47;5046379;28;20554;-68
2023/07/23 08:57:28;;;;;;;1.88;1.88;;;;;;;33.10;32.24;96945.91;5047445;28;20110;-66
2023/07/23 08:59:57;;;;;;;2.20;2.20;;;;;;;33.04;32.65;96922.19;5046758;28;20450;-67
2023/07/23 09:02:25;;;;;;;2.20;2.20;;;;;;;33.00;31.72;96936.03;5047657;28;20044;-67
2023/07/23 09:04:52;;;;;;;1.70;1.70;;;;;;;33.04;32.02;96953.75;5046952;28;20057;-67
2023/07/23 09:07:19;;;;;;;2.20;2.20;;;;;;;33.02;31.69;96950.63;5061931;28;20055;-67
2023/07/23 09:09:49;;;;;;;1.75;1.75;;;;;;;33.16;32.86;96948.78;5047123;28;20045;-67
2023/07/23 09:12:16;;;;;;;2.10;2.10;;;;;;;33.07;31.76;96964.19;5045387;28;20063;-67
2023/07/23 09:14:44;;;;;;;1.65;1.65;;;;;;;32.68;32.55;96931.81;5061005;28;20050;-67
2023/07/23 09:17:19;;;;;;;2.08;2.08;;;;;;;32.95;31.91;96951.16;5066124;28;20056;-67
2023/07/23 09:19:47;;;;;;;2.00;2.00;;;;;;;32.88;31.55;96963.16;5065054;28;20151;-67
2023/07/23 09:22:17;;;;;;;2.00;2.00;;;;;;;33.05;31.67;96963.16;5066253;28;20052;-67
2023/07/23 09:24:43;;;;;;;1.75;1.75;;;;;;;32.87;31.13;96978.78;5066401;28;20048;-68
2023/07/23 09:27:11;;;;;;;2.17;2.17;;;;;;;32.90;31.60;96977.78;5066230;28;20055;-66
2023/07/23 09:29:43;;;;;;;1.88;1.88;;;;;;;32.82;31.22;96975.88;5066802;28;20080;-65
2023/07/23 09:32:25;;;;;;;1.90;1.90;;;;;;;32.85;31.07;96964.16;5063949;28;20514;-66
2023/07/23 09:34:55;;;;;;;1.88;1.88;;;;;;;32.99;31.81;96963.16;5066418;28;20045;-66
2023/07/23 09:37:22;;;;;;;1.75;1.75;;;;;;;32.64;31.72;96937.03;5066247;28;20059;-67
2023/07/23 09:39:53;;;;;;;1.83;1.83;;;;;;;33.01;31.07;96966.28;5065900;28;20511;-66
2023/07/23 09:42:22;;;;;;;1.70;1.70;;;;;;;32.49;32.14;96904.91;5066040;28;20055;-69
2023/07/23 09:44:49;;;;;;;2.17;2.17;;;;;;;32.81;31.53;96922.69;5066592;28;20049;-67
2023/07/23 09:47:15;;;;;;;1.77;1.77;;;;;;;33.09;30.50;96973.06;5064355;28;20090;-67
2023/07/23 09:49:42;;;;;;;2.10;2.10;;;;;;;32.97;30.14;96962.91;5065862;28;20146;-65
2023/07/23 09:52:09;;;;;;;1.85;1.85;;;;;;;32.94;30.58;96963.16;5064347;28;20131;-66
2023/07/23 09:54:36;;;;;;;1.95;1.95;;;;;;;32.85;30.84;96969.13;5065545;28;20080;-67
2023/07/23 09:57:03;;;;;;;1.83;1.83;;;;;;;32.73;31.53;96956.84;5065722;28;20055;-67
2023/07/23 09:59:31;;;;;;;1.90;1.90;;;;;;;32.78;31.44;96958.16;5064398;28;20052;-67
2023/07/23 10:01:57;;;;;;;2.22;2.22;;;;;;;33.03;31.35;96962.91;5064014;28;20048;-67
2023/07/23 10:04:29;;;;;;;1.80;1.80;;;;;;;32.84;30.79;96951.13;5065818;28;20049;-66
2023/07/23 10:06:57;;;;;;;1.90;1.90;;;;;;;32.98;31.27;96961.59;5065384;28;20155;-66
2023/07/23 10:09:24;;;;;;;1.80;1.80;;;;;;;31.63;31.65;96778.84;5064125;28;20084;-66
2023/07/23 10:11:51;;;;;;;2.10;2.10;;;;;;;32.86;31.92;96937.03;5065543;28;20049;-66
2023/07/23 10:14:17;;;;;;;1.85;1.85;;;;;;;33.29;31.28;96952.69;5054712;28;20067;-66
2023/07/23 10:16:46;;;;;;;2.00;2.00;;;;;;;33.60;31.64;96925.75;5045420;28;20057;-66
2023/07/23 10:19:14;;;;;;;1.80;1.80;;;;;;;33.79;31.25;96943.97;5045530;28;20048;-67
2023/07/23 10:21:47;;;;;;;1.88;1.88;;;;;;;33.62;31.00;96952.66;5045184;28;20103;-66
2023/07/23 10:24:14;;;;;;;1.70;1.70;;;;;;;33.57;30.42;96956.34;5050959;28;20071;-66
2023/07/23 10:26:42;;;;;;;2.40;2.40;;;;;;;33.93;30.40;96947.88;5045595;28;20388;-66
2023/07/23 10:29:15;;;;;;;2.28;2.28;;;;;;;33.90;29.30;96946.84;5045549;28;20087;-67
2023/07/23 10:31:45;;;;;;;2.03;2.03;;;;;;;33.85;30.63;96941.88;5045529;28;20061;-67
2023/07/23 10:34:27;;;;;;;1.83;1.83;;;;;;;33.89;30.09;96953.88;5045876;28;20060;-67
2023/07/23 10:37:18;;;;;;;2.05;2.05;;;;;;;33.72;30.56;96951.06;5044849;28;20052;-67
2023/07/23 10:39:55;;;;;;;1.77;1.77;;;;;;;33.54;29.99;96951.63;5045109;28;20439;-66
2023/07/23 10:42:28;;;;;;;1.85;1.85;;;;;;;33.58;30.99;96952.16;5045157;28;20130;-67
2023/07/23 10:45:22;;;;;;;2.17;2.17;;;;;;;33.67;31.32;96966.22;5044021;28;20055;-67
2023/07/23 10:47:51;;;;;;;;;;;;;;;33.79;31.32;96938.22;5045101;28;20299;-66
2023/07/23 10:50:19;;;;;;;2.03;2.03;;;;;;;33.86;31.73;96954.16;5044868;28;19931;-67
2023/07/23 10:52:49;;;;;;;1.90;1.90;;;;;;;33.75;31.16;96950.00;5059910;28;20060;-67
2023/07/23 10:55:34;;;;;;;2.03;2.03;;;;;;;33.88;32.09;96940.03;5045084;28;20068;-66
2023/07/23 10:58:03;;;;;;;1.73;1.73;;;;;;;34.02;31.40;96924.59;5044561;28;20132;-67
2023/07/23 11:00:31;;;;;;;2.20;2.20;;;;;;;33.97;30.72;96957.03;5044384;28;20053;-67
2023/07/23 11:02:58;;;;;;;2.05;2.05;;;;;;;33.37;30.89;96939.34;5042429;28;20053;-67
2023/07/23 11:05:24;;;;;;;2.00;2.00;;;;;;;33.54;30.25;96950.84;5042863;28;20516;-68
2023/07/23 11:08:14;;;;;;;1.80;1.80;;;;;;;33.27;30.86;96903.63;5043956;28;20049;-66
2023/07/23 11:11:01;;;;;;;2.10;2.10;;;;;;;33.53;30.94;96927.06;5059565;28;20052;-67
2023/07/23 11:13:31;;;;;;;1.77;1.77;;;;;;;33.45;30.31;96948.28;5044519;28;20060;-67
2023/07/23 11:15:58;;;;;;;1.95;1.95;;;;;;;33.42;31.12;96949.28;5043876;28;20428;-66
2023/07/23 11:18:28;;;;;;;2.00;2.00;;;;;;;33.41;31.90;96970.72;5043996;28;20045;-66
2023/07/23 11:20:57;;;;;;;1.90;1.90;;;;;;;33.11;31.49;96936.00;5044408;28;20049;-67
2023/07/23 11:23:25;;;;;;;1.90;1.90;;;;;;;33.16;31.94;96909.38;5044446;28;20128;-66
2023/07/23 11:25:54;;;;;;;1.88;1.88;;;;;;;33.42;30.77;96938.59;5042440;28;20504;-67
2023/07/23 11:28:22;;;;;;;1.90;1.90;;;;;;;32.07;31.33;96733.09;5059023;28;20056;-67
2023/07/23 11:30:53;;;;;;;2.05;2.05;;;;;;;33.62;31.06;96915.28;5058882;28;20127;-66
2023/07/23 11:33:22;;;;;;;1.90;1.90;;;;;;;33.82;31.30;96930.63;5043929;28;20186;-67
2023/07/23 11:35:49;;;;;;;2.03;2.03;;;;;;;33.53;30.27;96926.28;5044054;28;20049;-67
2023/07/23 11:38:15;;;;;;;2.20;2.20;;;;;;;33.66;31.34;96924.44;5043835;28;20045;-66